Terminal Aerodrome Forecast
Issued by NWS

Home | Current Version | Previous Version | Text Only | Print | Product List | Glossary On
Versions: 1 2 3 4 5 6 7 8 9 10 11 12 13 14 15 16 17 18 19 20 21
000
FTUS41 KBGM 211700 RRA
TAFITH
TAF
KITH 211744Z 2118/2218 32012G20KT P6SM -SHSN SCT012 BKN025
      TEMPO 2118/2120 2SM -SHSN OVC012
     FM212000 29008KT P6SM -SHSN SCT025 BKN035
     FM220000 VRB03KT P6SM SCT035 BKN150
     FM221500 16008KT P6SM OVC035 PROB30 2215/2218 3SM -FZRAPLSN BR=

USA.gov is the U.S. government's official web portal to all federal, state and local government web resources and services.